sensor_id;sensor_type;location;lat;lon;timestamp;P1;durP1;ratioP1;P2;durP2;ratioP2
74383;SDS011;62824;52.994;-3.936;2024-02-26T00:02:15;7.00;;;4.70;;
74383;SDS011;62824;52.994;-3.936;2024-02-26T00:04:42;9.57;;;5.57;;
74383;SDS011;62824;52.994;-3.936;2024-02-26T00:07:08;9.90;;;5.30;;
74383;SDS011;62824;52.994;-3.936;2024-02-26T00:09:33;8.15;;;5.07;;
74383;SDS011;62824;52.994;-3.936;2024-02-26T00:12:02;8.52;;;5.45;;
74383;SDS011;62824;52.994;-3.936;2024-02-26T00:14:29;7.30;;;5.57;;
74383;SDS011;62824;52.994;-3.936;2024-02-26T00:16:59;9.50;;;5.57;;
74383;SDS011;62824;52.994;-3.936;2024-02-26T00:19:25;6.68;;;5.30;;
74383;SDS011;62824;52.994;-3.936;2024-02-26T00:21:51;9.25;;;5.90;;
74383;SDS011;62824;52.994;-3.936;2024-02-26T00:24:18;10.25;;;5.78;;
74383;SDS011;62824;52.994;-3.936;2024-02-26T00:26:44;9.23;;;5.45;;
74383;SDS011;62824;52.994;-3.936;2024-02-26T00:29:10;6.80;;;4.88;;
74383;SDS011;62824;52.994;-3.936;2024-02-26T00:31:37;6.63;;;4.18;;
74383;SDS011;62824;52.994;-3.936;2024-02-26T00:34:03;8.60;;;3.88;;
74383;SDS011;62824;52.994;-3.936;2024-02-26T00:36:29;6.60;;;3.55;;
74383;SDS011;62824;52.994;-3.936;2024-02-26T00:38:55;8.23;;;3.83;;
74383;SDS011;62824;52.994;-3.936;2024-02-26T00:41:21;7.93;;;4.45;;
74383;SDS011;62824;52.994;-3.936;2024-02-26T00:43:47;7.70;;;2.83;;
74383;SDS011;62824;52.994;-3.936;2024-02-26T00:46:13;5.32;;;3.85;;
74383;SDS011;62824;52.994;-3.936;2024-02-26T00:48:39;10.20;;;3.85;;
74383;SDS011;62824;52.994;-3.936;2024-02-26T00:51:05;4.82;;;2.72;;
74383;SDS011;62824;52.994;-3.936;2024-02-26T00:53:31;7.97;;;3.33;;
74383;SDS011;62824;52.994;-3.936;2024-02-26T00:55:57;5.05;;;3.60;;
74383;SDS011;62824;52.994;-3.936;2024-02-26T00:58:26;7.10;;;4.20;;
74383;SDS011;62824;52.994;-3.936;2024-02-26T01:00:52;4.20;;;2.83;;
74383;SDS011;62824;52.994;-3.936;2024-02-26T01:03:18;6.93;;;3.55;;
74383;SDS011;62824;52.994;-3.936;2024-02-26T01:05:44;5.18;;;3.30;;
74383;SDS011;62824;52.994;-3.936;2024-02-26T01:08:11;8.23;;;3.75;;
74383;SDS011;62824;52.994;-3.936;2024-02-26T01:10:37;4.45;;;2.83;;
74383;SDS011;62824;52.994;-3.936;2024-02-26T01:13:03;7.95;;;3.40;;
74383;SDS011;62824;52.994;-3.936;2024-02-26T01:15:29;7.35;;;3.03;;
74383;SDS011;62824;52.994;-3.936;2024-02-26T01:17:55;6.43;;;3.25;;
74383;SDS011;62824;52.994;-3.936;2024-02-26T01:20:21;4.78;;;3.17;;
74383;SDS011;62824;52.994;-3.936;2024-02-26T01:22:47;6.93;;;3.45;;
74383;SDS011;62824;52.994;-3.936;2024-02-26T01:25:13;5.15;;;2.88;;
74383;SDS011;62824;52.994;-3.936;2024-02-26T01:27:40;6.78;;;3.20;;
74383;SDS011;62824;52.994;-3.936;2024-02-26T01:30:08;5.78;;;3.55;;
74383;SDS011;62824;52.994;-3.936;2024-02-26T01:32:34;5.80;;;3.08;;
74383;SDS011;62824;52.994;-3.936;2024-02-26T01:35:01;8.98;;;3.05;;
74383;SDS011;62824;52.994;-3.936;2024-02-26T01:37:28;4.30;;;2.88;;
74383;SDS011;62824;52.994;-3.936;2024-02-26T01:39:57;5.05;;;2.90;;
74383;SDS011;62824;52.994;-3.936;2024-02-26T01:42:23;5.93;;;2.88;;
74383;SDS011;62824;52.994;-3.936;2024-02-26T01:44:48;6.18;;;3.40;;
74383;SDS011;62824;52.994;-3.936;2024-02-26T01:47:17;6.95;;;3.15;;
74383;SDS011;62824;52.994;-3.936;2024-02-26T01:49:43;4.60;;;3.38;;
74383;SDS011;62824;52.994;-3.936;2024-02-26T01:52:09;5.13;;;2.95;;
74383;SDS011;62824;52.994;-3.936;2024-02-26T01:54:36;5.47;;;3.30;;
74383;SDS011;62824;52.994;-3.936;2024-02-26T01:57:06;7.18;;;3.75;;
74383;SDS011;62824;52.994;-3.936;2024-02-26T01:59:33;6.57;;;2.95;;
74383;SDS011;62824;52.994;-3.936;2024-02-26T02:02:00;6.13;;;3.45;;
74383;SDS011;62824;52.994;-3.936;2024-02-26T02:04:28;5.80;;;3.70;;
74383;SDS011;62824;52.994;-3.936;2024-02-26T02:06:55;6.20;;;3.33;;
74383;SDS011;62824;52.994;-3.936;2024-02-26T02:09:23;5.80;;;2.90;;
74383;SDS011;62824;52.994;-3.936;2024-02-26T02:11:49;5.90;;;3.53;;
74383;SDS011;62824;52.994;-3.936;2024-02-26T02:14:15;5.88;;;3.10;;
74383;SDS011;62824;52.994;-3.936;2024-02-26T02:16:41;4.93;;;3.13;;
74383;SDS011;62824;52.994;-3.936;2024-02-26T02:19:08;6.10;;;3.72;;
74383;SDS011;62824;52.994;-3.936;2024-02-26T02:21:34;3.88;;;2.58;;
74383;SDS011;62824;52.994;-3.936;2024-02-26T02:24:00;4.68;;;3.00;;
74383;SDS011;62824;52.994;-3.936;2024-02-26T02:26:26;8.68;;;3.00;;
74383;SDS011;62824;52.994;-3.936;2024-02-26T02:28:52;4.57;;;2.65;;
74383;SDS011;62824;52.994;-3.936;2024-02-26T02:31:18;5.20;;;2.40;;
74383;SDS011;62824;52.994;-3.936;2024-02-26T02:33:44;4.22;;;2.65;;
74383;SDS011;62824;52.994;-3.936;2024-02-26T02:36:10;7.20;;;3.75;;
74383;SDS011;62824;52.994;-3.936;2024-02-26T02:38:37;4.30;;;2.35;;
74383;SDS011;62824;52.994;-3.936;2024-02-26T02:41:03;5.07;;;2.75;;
74383;SDS011;62824;52.994;-3.936;2024-02-26T02:43:30;5.32;;;2.72;;
74383;SDS011;62824;52.994;-3.936;2024-02-26T02:45:56;6.80;;;3.00;;
74383;SDS011;62824;52.994;-3.936;2024-02-26T02:48:21;9.07;;;3.00;;
74383;SDS011;62824;52.994;-3.936;2024-02-26T02:50:47;5.85;;;2.95;;
74383;SDS011;62824;52.994;-3.936;2024-02-26T02:53:14;4.43;;;2.67;;
74383;SDS011;62824;52.994;-3.936;2024-02-26T02:55:41;7.80;;;2.42;;
74383;SDS011;62824;52.994;-3.936;2024-02-26T02:58:07;3.28;;;2.40;;
74383;SDS011;62824;52.994;-3.936;2024-02-26T03:00:33;4.85;;;2.50;;
74383;SDS011;62824;52.994;-3.936;2024-02-26T03:02:59;7.78;;;2.42;;
74383;SDS011;62824;52.994;-3.936;2024-02-26T03:05:25;7.25;;;3.72;;
74383;SDS011;62824;52.994;-3.936;2024-02-26T03:07:50;9.15;;;2.97;;
74383;SDS011;62824;52.994;-3.936;2024-02-26T03:10:17;7.43;;;2.80;;
74383;SDS011;62824;52.994;-3.936;2024-02-26T03:12:45;4.72;;;3.17;;
74383;SDS011;62824;52.994;-3.936;2024-02-26T03:15:11;5.25;;;2.83;;
74383;SDS011;62824;52.994;-3.936;2024-02-26T03:17:37;7.53;;;2.88;;
74383;SDS011;62824;52.994;-3.936;2024-02-26T03:20:03;7.13;;;2.90;;
74383;SDS011;62824;52.994;-3.936;2024-02-26T03:22:30;5.20;;;2.92;;
74383;SDS011;62824;52.994;-3.936;2024-02-26T03:24:56;4.95;;;2.22;;
74383;SDS011;62824;52.994;-3.936;2024-02-26T03:27:22;5.20;;;3.00;;
74383;SDS011;62824;52.994;-3.936;2024-02-26T03:29:48;4.15;;;2.28;;
74383;SDS011;62824;52.994;-3.936;2024-02-26T03:32:14;6.90;;;2.92;;
74383;SDS011;62824;52.994;-3.936;2024-02-26T03:34:40;4.70;;;2.60;;
74383;SDS011;62824;52.994;-3.936;2024-02-26T03:37:07;8.48;;;2.42;;
74383;SDS011;62824;52.994;-3.936;2024-02-26T03:39:35;4.03;;;2.47;;
74383;SDS011;62824;52.994;-3.936;2024-02-26T03:42:01;4.15;;;2.72;;
74383;SDS011;62824;52.994;-3.936;2024-02-26T03:44:28;5.20;;;2.53;;
74383;SDS011;62824;52.994;-3.936;2024-02-26T03:46:54;8.27;;;2.88;;
74383;SDS011;62824;52.994;-3.936;2024-02-26T03:49:20;5.05;;;2.78;;
74383;SDS011;62824;52.994;-3.936;2024-02-26T03:51:47;3.78;;;2.38;;
74383;SDS011;62824;52.994;-3.936;2024-02-26T03:54:13;6.97;;;3.30;;
74383;SDS011;62824;52.994;-3.936;2024-02-26T03:56:40;4.60;;;2.83;;
74383;SDS011;62824;52.994;-3.936;2024-02-26T03:59:06;3.97;;;2.58;;
74383;SDS011;62824;52.994;-3.936;2024-02-26T04:01:32;4.88;;;2.35;;
74383;SDS011;62824;52.994;-3.936;2024-02-26T04:03:57;7.07;;;3.00;;
74383;SDS011;62824;52.994;-3.936;2024-02-26T04:06:24;5.13;;;2.20;;
74383;SDS011;62824;52.994;-3.936;2024-02-26T04:08:50;3.53;;;2.65;;
74383;SDS011;62824;52.994;-3.936;2024-02-26T04:11:16;4.35;;;2.67;;
74383;SDS011;62824;52.994;-3.936;2024-02-26T04:13:44;6.22;;;3.28;;
74383;SDS011;62824;52.994;-3.936;2024-02-26T04:16:16;5.70;;;2.53;;
74383;SDS011;62824;52.994;-3.936;2024-02-26T04:18:42;4.18;;;3.20;;
74383;SDS011;62824;52.994;-3.936;2024-02-26T04:21:08;6.28;;;2.83;;
74383;SDS011;62824;52.994;-3.936;2024-02-26T04:23:33;5.50;;;2.63;;
74383;SDS011;62824;52.994;-3.936;2024-02-26T04:25:59;4.93;;;2.45;;
74383;SDS011;62824;52.994;-3.936;2024-02-26T04:28:25;6.57;;;2.38;;
74383;SDS011;62824;52.994;-3.936;2024-02-26T04:30:53;5.75;;;2.72;;
74383;SDS011;62824;52.994;-3.936;2024-02-26T04:33:19;5.10;;;2.55;;
74383;SDS011;62824;52.994;-3.936;2024-02-26T04:35:45;7.15;;;3.00;;
74383;SDS011;62824;52.994;-3.936;2024-02-26T04:38:11;5.45;;;2.35;;
74383;SDS011;62824;52.994;-3.936;2024-02-26T04:40:37;3.72;;;2.88;;
74383;SDS011;62824;52.994;-3.936;2024-02-26T04:43:03;5.60;;;2.90;;
74383;SDS011;62824;52.994;-3.936;2024-02-26T04:45:29;8.13;;;3.42;;
74383;SDS011;62824;52.994;-3.936;2024-02-26T04:47:55;5.45;;;3.03;;
74383;SDS011;62824;52.994;-3.936;2024-02-26T04:50:20;4.13;;;3.33;;
74383;SDS011;62824;52.994;-3.936;2024-02-26T04:52:46;6.30;;;3.35;;
74383;SDS011;62824;52.994;-3.936;2024-02-26T04:55:15;5.53;;;3.20;;
74383;SDS011;62824;52.994;-3.936;2024-02-26T04:57:41;6.95;;;3.20;;
74383;SDS011;62824;52.994;-3.936;2024-02-26T05:00:07;6.93;;;3.10;;
74383;SDS011;62824;52.994;-3.936;2024-02-26T05:02:34;6.40;;;3.13;;
74383;SDS011;62824;52.994;-3.936;2024-02-26T05:05:04;5.68;;;3.20;;
74383;SDS011;62824;52.994;-3.936;2024-02-26T05:07:30;8.98;;;3.58;;
74383;SDS011;62824;52.994;-3.936;2024-02-26T05:09:57;5.07;;;3.05;;
74383;SDS011;62824;52.994;-3.936;2024-02-26T05:12:23;4.50;;;3.13;;
74383;SDS011;62824;52.994;-3.936;2024-02-26T05:14:49;5.38;;;2.95;;
74383;SDS011;62824;52.994;-3.936;2024-02-26T05:17:14;6.65;;;3.30;;
74383;SDS011;62824;52.994;-3.936;2024-02-26T05:19:40;5.20;;;3.05;;
74383;SDS011;62824;52.994;-3.936;2024-02-26T05:22:06;6.50;;;3.08;;
74383;SDS011;62824;52.994;-3.936;2024-02-26T05:24:32;6.15;;;3.30;;
74383;SDS011;62824;52.994;-3.936;2024-02-26T05:27:00;7.40;;;3.25;;
74383;SDS011;62824;52.994;-3.936;2024-02-26T05:29:26;9.82;;;4.30;;
74383;SDS011;62824;52.994;-3.936;2024-02-26T05:31:51;6.75;;;2.88;;
74383;SDS011;62824;52.994;-3.936;2024-02-26T05:34:19;7.25;;;4.00;;
74383;SDS011;62824;52.994;-3.936;2024-02-26T05:36:45;6.00;;;3.53;;
74383;SDS011;62824;52.994;-3.936;2024-02-26T05:39:11;5.60;;;3.08;;
74383;SDS011;62824;52.994;-3.936;2024-02-26T05:41:37;5.95;;;4.15;;
74383;SDS011;62824;52.994;-3.936;2024-02-26T05:44:03;7.10;;;4.53;;
74383;SDS011;62824;52.994;-3.936;2024-02-26T05:46:29;5.88;;;3.72;;
74383;SDS011;62824;52.994;-3.936;2024-02-26T05:48:55;6.47;;;4.38;;
74383;SDS011;62824;52.994;-3.936;2024-02-26T05:51:20;6.00;;;3.47;;
74383;SDS011;62824;52.994;-3.936;2024-02-26T05:53:47;6.10;;;3.55;;
74383;SDS011;62824;52.994;-3.936;2024-02-26T05:56:19;8.75;;;4.20;;
74383;SDS011;62824;52.994;-3.936;2024-02-26T05:58:45;6.78;;;3.15;;
74383;SDS011;62824;52.994;-3.936;2024-02-26T06:01:12;6.13;;;3.38;;
74383;SDS011;62824;52.994;-3.936;2024-02-26T06:03:38;5.47;;;3.30;;
74383;SDS011;62824;52.994;-3.936;2024-02-26T06:06:04;4.40;;;2.80;;
74383;SDS011;62824;52.994;-3.936;2024-02-26T06:08:30;5.38;;;2.80;;
74383;SDS011;62824;52.994;-3.936;2024-02-26T06:10:56;6.32;;;2.95;;
74383;SDS011;62824;52.994;-3.936;2024-02-26T06:13:21;6.45;;;3.17;;
74383;SDS011;62824;52.994;-3.936;2024-02-26T06:15:47;4.28;;;3.20;;
74383;SDS011;62824;52.994;-3.936;2024-02-26T06:18:13;8.48;;;3.50;;
74383;SDS011;62824;52.994;-3.936;2024-02-26T06:20:39;5.63;;;3.13;;
74383;SDS011;62824;52.994;-3.936;2024-02-26T06:23:05;9.77;;;4.00;;
74383;SDS011;62824;52.994;-3.936;2024-02-26T06:25:32;7.32;;;3.40;;
74383;SDS011;62824;52.994;-3.936;2024-02-26T06:27:58;5.47;;;3.13;;
74383;SDS011;62824;52.994;-3.936;2024-02-26T06:30:24;7.97;;;3.38;;
74383;SDS011;62824;52.994;-3.936;2024-02-26T06:32:49;5.20;;;2.92;;
74383;SDS011;62824;52.994;-3.936;2024-02-26T06:35:15;5.90;;;2.97;;
74383;SDS011;62824;52.994;-3.936;2024-02-26T06:37:41;4.32;;;2.78;;
74383;SDS011;62824;52.994;-3.936;2024-02-26T06:40:07;6.13;;;3.15;;
74383;SDS011;62824;52.994;-3.936;2024-02-26T06:42:33;5.20;;;2.47;;
74383;SDS011;62824;52.994;-3.936;2024-02-26T06:44:59;4.80;;;2.50;;
74383;SDS011;62824;52.994;-3.936;2024-02-26T06:47:25;5.75;;;2.78;;
74383;SDS011;62824;52.994;-3.936;2024-02-26T06:49:51;5.72;;;2.92;;
74383;SDS011;62824;52.994;-3.936;2024-02-26T06:52:17;4.78;;;2.65;;
74383;SDS011;62824;52.994;-3.936;2024-02-26T06:54:43;7.28;;;3.67;;
74383;SDS011;62824;52.994;-3.936;2024-02-26T06:57:10;3.97;;;2.42;;
74383;SDS011;62824;52.994;-3.936;2024-02-26T06:59:36;6.03;;;2.67;;
74383;SDS011;62824;52.994;-3.936;2024-02-26T07:02:01;4.80;;;2.33;;
74383;SDS011;62824;52.994;-3.936;2024-02-26T07:04:27;4.05;;;2.47;;
74383;SDS011;62824;52.994;-3.936;2024-02-26T07:06:53;2.65;;;1.70;;
74383;SDS011;62824;52.994;-3.936;2024-02-26T07:09:19;6.45;;;2.45;;
74383;SDS011;62824;52.994;-3.936;2024-02-26T07:11:45;3.10;;;2.08;;
74383;SDS011;62824;52.994;-3.936;2024-02-26T07:14:12;4.57;;;2.00;;
74383;SDS011;62824;52.994;-3.936;2024-02-26T07:16:38;4.13;;;1.92;;
74383;SDS011;62824;52.994;-3.936;2024-02-26T07:19:04;2.70;;;1.80;;
74383;SDS011;62824;52.994;-3.936;2024-02-26T07:21:29;3.83;;;1.70;;
74383;SDS011;62824;52.994;-3.936;2024-02-26T07:23:56;3.75;;;2.03;;
74383;SDS011;62824;52.994;-3.936;2024-02-26T07:26:22;5.25;;;2.25;;
74383;SDS011;62824;52.994;-3.936;2024-02-26T07:28:50;4.25;;;2.05;;
74383;SDS011;62824;52.994;-3.936;2024-02-26T07:31:17;5.00;;;1.98;;
74383;SDS011;62824;52.994;-3.936;2024-02-26T07:33:43;5.60;;;2.90;;
74383;SDS011;62824;52.994;-3.936;2024-02-26T07:36:09;3.53;;;2.25;;
74383;SDS011;62824;52.994;-3.936;2024-02-26T07:38:34;5.85;;;2.08;;
74383;SDS011;62824;52.994;-3.936;2024-02-26T07:41:01;5.68;;;2.50;;
74383;SDS011;62824;52.994;-3.936;2024-02-26T07:43:27;5.88;;;2.10;;
74383;SDS011;62824;52.994;-3.936;2024-02-26T07:45:54;3.95;;;2.42;;
74383;SDS011;62824;52.994;-3.936;2024-02-26T07:48:22;6.63;;;2.10;;
74383;SDS011;62824;52.994;-3.936;2024-02-26T07:50:51;7.03;;;2.25;;
74383;SDS011;62824;52.994;-3.936;2024-02-26T07:53:16;4.28;;;2.10;;
74383;SDS011;62824;52.994;-3.936;2024-02-26T07:55:42;3.28;;;2.00;;
74383;SDS011;62824;52.994;-3.936;2024-02-26T07:58:08;3.50;;;1.67;;
74383;SDS011;62824;52.994;-3.936;2024-02-26T08:00:34;4.07;;;1.60;;
74383;SDS011;62824;52.994;-3.936;2024-02-26T08:03:00;4.72;;;1.90;;
74383;SDS011;62824;52.994;-3.936;2024-02-26T08:05:29;2.92;;;1.40;;
74383;SDS011;62824;52.994;-3.936;2024-02-26T08:07:55;6.45;;;1.70;;
74383;SDS011;62824;52.994;-3.936;2024-02-26T08:10:21;3.20;;;1.70;;
74383;SDS011;62824;52.994;-3.936;2024-02-26T08:12:47;7.05;;;1.75;;
74383;SDS011;62824;52.994;-3.936;2024-02-26T08:15:13;2.15;;;1.48;;
74383;SDS011;62824;52.994;-3.936;2024-02-26T08:17:41;3.88;;;2.00;;
74383;SDS011;62824;52.994;-3.936;2024-02-26T08:20:07;2.00;;;1.58;;
74383;SDS011;62824;52.994;-3.936;2024-02-26T08:22:33;2.88;;;1.55;;
74383;SDS011;62824;52.994;-3.936;2024-02-26T08:24:59;2.58;;;1.60;;
74383;SDS011;62824;52.994;-3.936;2024-02-26T08:27:30;3.25;;;1.40;;
74383;SDS011;62824;52.994;-3.936;2024-02-26T08:29:56;2.22;;;1.45;;
74383;SDS011;62824;52.994;-3.936;2024-02-26T08:32:21;1.65;;;1.40;;
74383;SDS011;62824;52.994;-3.936;2024-02-26T08:34:47;3.55;;;1.23;;
74383;SDS011;62824;52.994;-3.936;2024-02-26T08:37:13;4.82;;;1.63;;
74383;SDS011;62824;52.994;-3.936;2024-02-26T08:39:39;2.72;;;1.30;;
74383;SDS011;62824;52.994;-3.936;2024-02-26T08:42:05;2.53;;;1.20;;
74383;SDS011;62824;52.994;-3.936;2024-02-26T08:44:31;1.67;;;0.93;;
74383;SDS011;62824;52.994;-3.936;2024-02-26T08:46:57;6.93;;;1.08;;
74383;SDS011;62824;52.994;-3.936;2024-02-26T08:49:23;2.85;;;1.02;;
74383;SDS011;62824;52.994;-3.936;2024-02-26T08:51:49;2.72;;;1.25;;
74383;SDS011;62824;52.994;-3.936;2024-02-26T08:54:15;2.55;;;1.25;;
74383;SDS011;62824;52.994;-3.936;2024-02-26T08:56:41;1.92;;;0.90;;
74383;SDS011;62824;52.994;-3.936;2024-02-26T08:59:07;2.63;;;0.98;;
74383;SDS011;62824;52.994;-3.936;2024-02-26T09:01:33;0.85;;;0.75;;
74383;SDS011;62824;52.994;-3.936;2024-02-26T09:03:59;1.27;;;0.70;;
74383;SDS011;62824;52.994;-3.936;2024-02-26T09:06:25;3.20;;;1.05;;
74383;SDS011;62824;52.994;-3.936;2024-02-26T09:08:51;2.78;;;0.85;;
74383;SDS011;62824;52.994;-3.936;2024-02-26T09:11:17;2.83;;;0.90;;
74383;SDS011;62824;52.994;-3.936;2024-02-26T09:13:43;3.33;;;1.27;;
74383;SDS011;62824;52.994;-3.936;2024-02-26T09:16:11;2.72;;;1.33;;
74383;SDS011;62824;52.994;-3.936;2024-02-26T09:18:38;1.52;;;1.17;;
74383;SDS011;62824;52.994;-3.936;2024-02-26T09:21:04;2.10;;;1.52;;
74383;SDS011;62824;52.994;-3.936;2024-02-26T09:23:31;2.78;;;0.93;;
74383;SDS011;62824;52.994;-3.936;2024-02-26T09:25:57;1.30;;;0.90;;
74383;SDS011;62824;52.994;-3.936;2024-02-26T09:28:23;1.30;;;0.70;;
74383;SDS011;62824;52.994;-3.936;2024-02-26T09:30:49;3.28;;;1.50;;
74383;SDS011;62824;52.994;-3.936;2024-02-26T09:33:16;1.33;;;0.82;;
74383;SDS011;62824;52.994;-3.936;2024-02-26T09:35:42;2.53;;;1.10;;
74383;SDS011;62824;52.994;-3.936;2024-02-26T09:38:08;5.88;;;1.40;;
74383;SDS011;62824;52.994;-3.936;2024-02-26T09:40:34;3.78;;;1.02;;
74383;SDS011;62824;52.994;-3.936;2024-02-26T09:43:00;2.65;;;1.17;;
74383;SDS011;62824;52.994;-3.936;2024-02-26T09:45:29;2.25;;;0.70;;
74383;SDS011;62824;52.994;-3.936;2024-02-26T09:47:57;0.68;;;0.65;;
74383;SDS011;62824;52.994;-3.936;2024-02-26T09:50:23;3.92;;;1.00;;
74383;SDS011;62824;52.994;-3.936;2024-02-26T09:52:49;3.55;;;3.22;;
74383;SDS011;62824;52.994;-3.936;2024-02-26T09:55:18;8.05;;;1.30;;
74383;SDS011;62824;52.994;-3.936;2024-02-26T09:57:45;2.40;;;0.82;;
74383;SDS011;62824;52.994;-3.936;2024-02-26T10:00:21;1.23;;;0.63;;
74383;SDS011;62824;52.994;-3.936;2024-02-26T10:02:48;2.22;;;0.80;;
74383;SDS011;62824;52.994;-3.936;2024-02-26T10:05:17;0.75;;;0.65;;
74383;SDS011;62824;52.994;-3.936;2024-02-26T10:07:46;3.77;;;0.70;;
74383;SDS011;62824;52.994;-3.936;2024-02-26T10:10:16;2.17;;;0.77;;
74383;SDS011;62824;52.994;-3.936;2024-02-26T10:12:42;4.45;;;0.68;;
74383;SDS011;62824;52.994;-3.936;2024-02-26T10:15:08;9.85;;;1.33;;
74383;SDS011;62824;52.994;-3.936;2024-02-26T10:17:35;0.60;;;0.50;;
74383;SDS011;62824;52.994;-3.936;2024-02-26T10:22:43;1.85;;;0.70;;
74383;SDS011;62824;52.994;-3.936;2024-02-26T10:25:09;3.05;;;0.65;;
74383;SDS011;62824;52.994;-3.936;2024-02-26T10:27:36;10.48;;;0.85;;
74383;SDS011;62824;52.994;-3.936;2024-02-26T10:30:02;2.08;;;0.80;;
74383;SDS011;62824;52.994;-3.936;2024-02-26T10:32:30;2.20;;;0.63;;
74383;SDS011;62824;52.994;-3.936;2024-02-26T10:34:56;3.75;;;0.70;;
74383;SDS011;62824;52.994;-3.936;2024-02-26T10:37:22;5.03;;;0.70;;
74383;SDS011;62824;52.994;-3.936;2024-02-26T10:39:50;2.75;;;0.65;;
74383;SDS011;62824;52.994;-3.936;2024-02-26T10:42:16;1.73;;;0.70;;
74383;SDS011;62824;52.994;-3.936;2024-02-26T10:44:44;6.38;;;1.17;;
74383;SDS011;62824;52.994;-3.936;2024-02-26T10:47:11;0.60;;;0.40;;
74383;SDS011;62824;52.994;-3.936;2024-02-26T10:49:37;2.45;;;0.73;;
74383;SDS011;62824;52.994;-3.936;2024-02-26T10:52:03;13.43;;;2.22;;
74383;SDS011;62824;52.994;-3.936;2024-02-26T10:54:31;6.13;;;0.77;;
74383;SDS011;62824;52.994;-3.936;2024-02-26T10:56:58;4.03;;;1.20;;
74383;SDS011;62824;52.994;-3.936;2024-02-26T10:59:26;6.85;;;1.20;;
74383;SDS011;62824;52.994;-3.936;2024-02-26T11:01:53;8.52;;;1.33;;
74383;SDS011;62824;52.994;-3.936;2024-02-26T11:04:20;3.00;;;0.60;;
74383;SDS011;62824;52.994;-3.936;2024-02-26T11:06:52;2.97;;;0.70;;
74383;SDS011;62824;52.994;-3.936;2024-02-26T11:09:21;12.00;;;1.77;;
74383;SDS011;62824;52.994;-3.936;2024-02-26T11:11:48;2.63;;;0.85;;
74383;SDS011;62824;52.994;-3.936;2024-02-26T11:14:19;2.67;;;0.82;;
74383;SDS011;62824;52.994;-3.936;2024-02-26T11:16:47;4.43;;;0.95;;
74383;SDS011;62824;52.994;-3.936;2024-02-26T11:19:14;7.72;;;1.17;;
74383;SDS011;62824;52.994;-3.936;2024-02-26T11:21:42;3.65;;;1.10;;
74383;SDS011;62824;52.994;-3.936;2024-02-26T11:24:09;2.15;;;0.85;;
74383;SDS011;62824;52.994;-3.936;2024-02-26T11:26:46;11.13;;;1.30;;
74383;SDS011;62824;52.994;-3.936;2024-02-26T11:29:24;4.00;;;0.90;;
74383;SDS011;62824;52.994;-3.936;2024-02-26T11:32:00;6.13;;;1.27;;
74383;SDS011;62824;52.994;-3.936;2024-02-26T11:34:27;16.73;;;2.05;;
74383;SDS011;62824;52.994;-3.936;2024-02-26T11:36:53;12.98;;;1.20;;
74383;SDS011;62824;52.994;-3.936;2024-02-26T11:39:20;5.45;;;0.70;;
74383;SDS011;62824;52.994;-3.936;2024-02-26T11:41:47;3.03;;;0.90;;
74383;SDS011;62824;52.994;-3.936;2024-02-26T11:44:15;1.77;;;0.77;;
74383;SDS011;62824;52.994;-3.936;2024-02-26T11:46:55;6.22;;;0.82;;
74383;SDS011;62824;52.994;-3.936;2024-02-26T11:51:57;7.82;;;1.67;;
74383;SDS011;62824;52.994;-3.936;2024-02-26T12:00:11;3.55;;;0.60;;
74383;SDS011;62824;52.994;-3.936;2024-02-26T12:05:10;4.60;;;0.93;;
74383;SDS011;62824;52.994;-3.936;2024-02-26T12:08:02;1.73;;;0.60;;
74383;SDS011;62824;52.994;-3.936;2024-02-26T12:10:32;1.65;;;0.68;;
74383;SDS011;62824;52.994;-3.936;2024-02-26T12:15:42;7.72;;;1.10;;
74383;SDS011;62824;52.994;-3.936;2024-02-26T12:18:20;0.82;;;0.57;;
74383;SDS011;62824;52.994;-3.936;2024-02-26T12:20:57;3.75;;;0.80;;
74383;SDS011;62824;52.994;-3.936;2024-02-26T12:23:26;1.25;;;0.40;;
74383;SDS011;62824;52.994;-3.936;2024-02-26T12:25:53;1.05;;;0.50;;
74383;SDS011;62824;52.994;-3.936;2024-02-26T12:28:27;1.00;;;0.55;;
74383;SDS011;62824;52.994;-3.936;2024-02-26T12:30:56;0.60;;;0.50;;
74383;SDS011;62824;52.994;-3.936;2024-02-26T12:33:24;12.55;;;1.70;;
74383;SDS011;62824;52.994;-3.936;2024-02-26T12:35:51;2.25;;;0.52;;
74383;SDS011;62824;52.994;-3.936;2024-02-26T12:38:18;1.75;;;0.65;;
74383;SDS011;62824;52.994;-3.936;2024-02-26T12:40:44;2.17;;;0.50;;
74383;SDS011;62824;52.994;-3.936;2024-02-26T12:43:11;1.45;;;0.47;;
74383;SDS011;62824;52.994;-3.936;2024-02-26T12:45:41;2.63;;;0.68;;
74383;SDS011;62824;52.994;-3.936;2024-02-26T12:48:12;0.50;;;0.28;;
74383;SDS011;62824;52.994;-3.936;2024-02-26T12:50:38;0.75;;;0.52;;
74383;SDS011;62824;52.994;-3.936;2024-02-26T12:53:04;2.88;;;0.80;;
74383;SDS011;62824;52.994;-3.936;2024-02-26T12:55:31;3.30;;;0.68;;
74383;SDS011;62824;52.994;-3.936;2024-02-26T12:57:59;0.65;;;0.60;;
74383;SDS011;62824;52.994;-3.936;2024-02-26T13:00:26;2.28;;;0.43;;
74383;SDS011;62824;52.994;-3.936;2024-02-26T13:02:53;2.00;;;0.60;;
74383;SDS011;62824;52.994;-3.936;2024-02-26T13:05:20;2.30;;;0.60;;
74383;SDS011;62824;52.994;-3.936;2024-02-26T13:07:48;3.47;;;0.70;;
74383;SDS011;62824;52.994;-3.936;2024-02-26T13:10:16;4.45;;;1.08;;
74383;SDS011;62824;52.994;-3.936;2024-02-26T13:12:47;3.13;;;0.60;;
74383;SDS011;62824;52.994;-3.936;2024-02-26T13:15:19;3.80;;;1.00;;
74383;SDS011;62824;52.994;-3.936;2024-02-26T13:17:46;1.25;;;0.50;;
74383;SDS011;62824;52.994;-3.936;2024-02-26T13:20:13;4.50;;;0.85;;
74383;SDS011;62824;52.994;-3.936;2024-02-26T13:22:50;2.13;;;0.63;;
74383;SDS011;62824;52.994;-3.936;2024-02-26T13:25:20;1.50;;;0.60;;
74383;SDS011;62824;52.994;-3.936;2024-02-26T13:27:46;2.13;;;0.50;;
74383;SDS011;62824;52.994;-3.936;2024-02-26T13:30:12;11.60;;;1.35;;
74383;SDS011;62824;52.994;-3.936;2024-02-26T13:32:39;1.67;;;0.65;;
74383;SDS011;62824;52.994;-3.936;2024-02-26T13:35:12;1.38;;;0.40;;
74383;SDS011;62824;52.994;-3.936;2024-02-26T13:40:08;3.97;;;0.60;;
74383;SDS011;62824;52.994;-3.936;2024-02-26T13:42:38;0.50;;;0.43;;
74383;SDS011;62824;52.994;-3.936;2024-02-26T13:45:04;5.25;;;1.60;;
74383;SDS011;62824;52.994;-3.936;2024-02-26T13:47:34;5.47;;;1.50;;
74383;SDS011;62824;52.994;-3.936;2024-02-26T13:50:00;2.90;;;0.70;;
74383;SDS011;62824;52.994;-3.936;2024-02-26T13:52:27;0.77;;;0.50;;
74383;SDS011;62824;52.994;-3.936;2024-02-26T13:54:53;3.70;;;1.17;;
74383;SDS011;62824;52.994;-3.936;2024-02-26T13:57:19;2.35;;;0.65;;
74383;SDS011;62824;52.994;-3.936;2024-02-26T13:59:45;3.40;;;0.60;;
74383;SDS011;62824;52.994;-3.936;2024-02-26T14:02:11;1.58;;;0.50;;
74383;SDS011;62824;52.994;-3.936;2024-02-26T14:04:37;2.42;;;0.98;;
74383;SDS011;62824;52.994;-3.936;2024-02-26T14:07:03;38.13;;;7.70;;
74383;SDS011;62824;52.994;-3.936;2024-02-26T14:09:29;5.07;;;0.90;;
74383;SDS011;62824;52.994;-3.936;2024-02-26T14:11:57;1.88;;;0.52;;
74383;SDS011;62824;52.994;-3.936;2024-02-26T14:14:24;4.35;;;0.60;;
74383;SDS011;62824;52.994;-3.936;2024-02-26T14:16:51;0.80;;;0.60;;
74383;SDS011;62824;52.994;-3.936;2024-02-26T14:19:17;0.52;;;0.40;;
74383;SDS011;62824;52.994;-3.936;2024-02-26T14:21:43;1.38;;;0.50;;
74383;SDS011;62824;52.994;-3.936;2024-02-26T14:24:08;6.03;;;0.65;;
74383;SDS011;62824;52.994;-3.936;2024-02-26T14:26:34;2.45;;;1.02;;
74383;SDS011;62824;52.994;-3.936;2024-02-26T14:29:00;1.67;;;0.60;;
74383;SDS011;62824;52.994;-3.936;2024-02-26T14:31:26;1.33;;;0.90;;
74383;SDS011;62824;52.994;-3.936;2024-02-26T14:33:52;1.10;;;0.40;;
74383;SDS011;62824;52.994;-3.936;2024-02-26T14:36:19;1.52;;;0.60;;
74383;SDS011;62824;52.994;-3.936;2024-02-26T14:38:46;2.92;;;1.00;;
74383;SDS011;62824;52.994;-3.936;2024-02-26T14:41:13;4.88;;;1.35;;
74383;SDS011;62824;52.994;-3.936;2024-02-26T14:43:39;2.33;;;0.77;;
74383;SDS011;62824;52.994;-3.936;2024-02-26T14:46:05;6.53;;;0.80;;
74383;SDS011;62824;52.994;-3.936;2024-02-26T14:48:33;6.63;;;0.93;;
74383;SDS011;62824;52.994;-3.936;2024-02-26T14:51:00;5.15;;;1.00;;